createdAt,value
2023-03-29T00:02:50.428Z,4.50
2023-03-29T00:07:54.468Z,4.57
2023-03-29T00:18:00.441Z,5.10
2023-03-29T00:23:03.313Z,4.47
2023-03-29T00:28:06.285Z,4.32
2023-03-29T00:33:09.255Z,5.30
2023-03-29T00:38:12.198Z,5.35
2023-03-29T00:43:16.073Z,5.28
2023-03-29T00:48:24.571Z,4.93
2023-03-29T00:53:36.218Z,5.22
2023-03-29T00:59:13.894Z,6.00
2023-03-29T01:04:40.890Z,5.70
2023-03-29T01:09:48.935Z,5.75
2023-03-29T01:14:56.747Z,5.60
2023-03-29T01:20:13.912Z,5.80
2023-03-29T01:25:53.830Z,5.47
2023-03-29T01:31:04.258Z,5.43
2023-03-29T01:36:27.388Z,5.53
2023-03-29T01:41:42.681Z,4.80
2023-03-29T01:46:55.372Z,5.60
2023-03-29T01:52:06.880Z,5.28
2023-03-29T01:57:12.044Z,5.00
2023-03-29T02:02:18.176Z,6.38
2023-03-29T02:07:27.200Z,5.95
2023-03-29T02:12:30.100Z,6.45
2023-03-29T02:17:33.104Z,6.13
2023-03-29T02:22:55.190Z,5.72
2023-03-29T02:27:58.734Z,6.90
2023-03-29T02:33:11.029Z,7.03
2023-03-29T02:38:15.037Z,7.07
2023-03-29T02:43:19.437Z,6.35
2023-03-29T02:48:26.690Z,6.28
2023-03-29T02:53:40.606Z,6.43
2023-03-29T02:58:43.652Z,5.82
2023-03-29T03:03:48.301Z,6.93
2023-03-29T03:08:51.248Z,6.60
2023-03-29T03:13:54.082Z,7.13
2023-03-29T03:18:56.988Z,6.85
2023-03-29T03:24:18.673Z,6.35
2023-03-29T03:29:22.038Z,7.55
2023-03-29T03:34:45.095Z,7.03
2023-03-29T03:40:12.211Z,6.07
2023-03-29T03:45:16.041Z,6.40
2023-03-29T03:50:38.474Z,6.75
2023-03-29T03:55:42.992Z,6.13
2023-03-29T04:00:51.701Z,6.32
2023-03-29T04:06:11.939Z,6.68
2023-03-29T04:11:34.900Z,6.15
2023-03-29T04:16:56.547Z,5.90
2023-03-29T04:22:18.268Z,6.07
2023-03-29T04:27:21.803Z,6.28
2023-03-29T04:32:25.002Z,6.55
2023-03-29T04:37:48.561Z,5.57
2023-03-29T04:42:52.928Z,6.65
2023-03-29T04:47:59.827Z,7.10
2023-03-29T04:53:03.797Z,7.03
2023-03-29T04:58:08.119Z,7.03
2023-03-29T05:03:14.752Z,6.20
2023-03-29T05:08:40.107Z,6.72
2023-03-29T05:13:49.263Z,6.00
2023-03-29T05:18:52.975Z,6.30
2023-03-29T05:23:56.156Z,6.60
2023-03-29T05:29:19.327Z,6.55
2023-03-29T05:34:28.783Z,6.18
2023-03-29T05:39:37.888Z,5.85
2023-03-29T05:44:41.998Z,6.40
2023-03-29T05:49:52.906Z,6.13
2023-03-29T05:54:57.935Z,5.43
2023-03-29T06:00:02.221Z,5.25
2023-03-29T06:05:23.593Z,5.93
2023-03-29T06:10:44.284Z,5.60
2023-03-29T06:16:01.415Z,5.65
2023-03-29T06:21:05.533Z,5.30
2023-03-29T06:26:09.004Z,5.88
2023-03-29T06:31:13.361Z,5.68
2023-03-29T06:36:17.011Z,6.28
2023-03-29T06:46:38.362Z,5.82
2023-03-29T06:51:43.637Z,5.60
2023-03-29T06:56:47.551Z,5.20
2023-03-29T07:01:55.536Z,6.20
2023-03-29T07:07:22.811Z,6.25
2023-03-29T07:12:38.274Z,6.32
2023-03-29T07:17:42.059Z,5.78
2023-03-29T07:22:47.405Z,6.20
2023-03-29T07:27:52.318Z,6.22
2023-03-29T07:32:57.766Z,5.35
2023-03-29T07:38:09.879Z,4.55
2023-03-29T07:43:21.925Z,5.18
2023-03-29T07:48:25.567Z,5.13
2023-03-29T07:53:34.140Z,5.43
2023-03-29T07:58:40.881Z,4.88
2023-03-29T08:03:44.293Z,5.65
2023-03-29T08:08:47.713Z,5.13
2023-03-29T08:13:52.954Z,4.85
2023-03-29T08:19:01.816Z,4.97
2023-03-29T08:24:21.110Z,5.43
2023-03-29T08:29:29.529Z,4.88
2023-03-29T08:39:51.184Z,4.97
2023-03-29T08:45:43.916Z,4.80
2023-03-29T08:50:53.012Z,4.50
2023-03-29T08:55:59.941Z,4.60
2023-03-29T09:01:22.958Z,5.25
2023-03-29T09:06:28.845Z,5.38
2023-03-29T09:11:47.746Z,5.38
2023-03-29T09:16:56.420Z,5.60
2023-03-29T09:22:31.684Z,5.25
2023-03-29T09:27:50.343Z,4.68
2023-03-29T09:33:13.962Z,5.15
2023-03-29T09:38:33.246Z,4.28
2023-03-29T09:43:41.599Z,4.00
2023-03-29T09:48:50.964Z,4.47
2023-03-29T09:53:57.253Z,4.78
2023-03-29T09:59:28.367Z,4.32
2023-03-29T10:04:32.229Z,4.78
2023-03-29T10:09:36.998Z,4.47
2023-03-29T10:14:54.826Z,4.57
2023-03-29T10:20:20.064Z,5.40
2023-03-29T10:25:29.041Z,4.75
2023-03-29T10:30:37.437Z,4.43
2023-03-29T10:35:44.387Z,4.05
2023-03-29T10:41:12.360Z,4.82
2023-03-29T10:51:25.554Z,3.70
2023-03-29T10:56:42.076Z,3.25
2023-03-29T11:02:00.239Z,3.13
2023-03-29T11:07:33.046Z,3.17
2023-03-29T11:12:57.949Z,2.65
2023-03-29T11:18:12.643Z,2.50
2023-03-29T11:23:41.701Z,2.75
2023-03-29T11:28:50.436Z,2.67
2023-03-29T11:34:18.345Z,2.75
2023-03-29T11:39:30.594Z,2.53
2023-03-29T11:44:34.625Z,2.30
2023-03-29T11:50:13.612Z,2.47
2023-03-29T11:55:26.722Z,2.25
2023-03-29T12:00:52.232Z,2.60
2023-03-29T12:06:07.651Z,2.33
2023-03-29T12:11:23.113Z,2.60
2023-03-29T12:16:37.583Z,2.45
2023-03-29T12:21:42.989Z,2.20
2023-03-29T12:27:01.716Z,2.25
2023-03-29T12:32:25.928Z,2.25
2023-03-29T12:38:04.440Z,2.58
2023-03-29T12:43:43.581Z,2.40
2023-03-29T12:48:57.971Z,2.20
2023-03-29T12:54:17.228Z,1.80
2023-03-29T12:59:23.175Z,1.98
2023-03-29T13:05:01.541Z,2.03
2023-03-29T13:10:10.437Z,1.90
2023-03-29T13:15:17.074Z,2.00
2023-03-29T13:20:37.558Z,1.80
2023-03-29T13:26:01.237Z,1.80
2023-03-29T13:31:08.459Z,1.95
2023-03-29T13:36:56.928Z,2.00
2023-03-29T13:42:19.970Z,2.00
2023-03-29T13:47:58.254Z,1.58
2023-03-29T13:53:15.417Z,1.70
2023-03-29T13:58:41.916Z,1.80
2023-03-29T14:03:48.764Z,2.00
2023-03-29T14:08:52.435Z,2.45
2023-03-29T14:14:15.002Z,1.85
2023-03-29T14:19:25.008Z,2.50
2023-03-29T14:29:54.774Z,2.58
2023-03-29T14:34:58.258Z,2.42
2023-03-29T14:40:21.115Z,2.38
2023-03-29T14:50:47.131Z,2.38
2023-03-29T14:55:54.046Z,2.53
2023-03-29T15:00:57.134Z,2.42
2023-03-29T15:06:04.058Z,2.42
2023-03-29T15:11:15.747Z,2.88
2023-03-29T15:16:22.781Z,2.40
2023-03-29T15:21:31.968Z,2.45
2023-03-29T15:26:36.870Z,2.72
2023-03-29T15:31:42.282Z,2.40
2023-03-29T15:36:46.794Z,2.80
2023-03-29T15:41:53.104Z,2.45
2023-03-29T15:46:58.019Z,2.10
2023-03-29T15:52:00.887Z,2.10
2023-03-29T15:57:07.863Z,2.20
2023-03-29T16:02:21.815Z,2.30
2023-03-29T16:07:24.716Z,2.13
2023-03-29T16:12:27.512Z,2.90
2023-03-29T16:17:30.323Z,2.20
2023-03-29T16:22:33.219Z,1.92
2023-03-29T16:27:36.316Z,2.17
2023-03-29T16:32:39.298Z,2.47
2023-03-29T16:37:42.374Z,2.65
2023-03-29T16:42:45.479Z,2.28
2023-03-29T16:47:49.034Z,2.40
2023-03-29T17:03:02.003Z,2.53
2023-03-29T17:08:05.109Z,2.70
2023-03-29T17:13:08.592Z,2.60
2023-03-29T17:18:12.387Z,2.60
2023-03-29T17:23:15.693Z,2.33
2023-03-29T17:28:20.452Z,2.83
2023-03-29T17:33:26.300Z,2.63
2023-03-29T17:38:31.407Z,2.40
2023-03-29T17:43:34.485Z,2.80
2023-03-29T17:48:38.082Z,2.42
2023-03-29T17:53:40.975Z,2.78
2023-03-29T17:58:43.848Z,2.70
2023-03-29T18:03:48.472Z,2.72
2023-03-29T18:08:53.374Z,2.95
2023-03-29T18:14:14.595Z,2.30
2023-03-29T18:19:17.480Z,4.15
2023-03-29T18:24:20.299Z,2.42
2023-03-29T18:29:24.114Z,2.38
2023-03-29T18:34:45.533Z,2.13
2023-03-29T18:39:48.991Z,2.45
2023-03-29T18:44:52.152Z,2.70
2023-03-29T18:49:55.499Z,2.55
2023-03-29T18:54:58.396Z,2.35
2023-03-29T19:05:55.558Z,2.50
2023-03-29T19:11:02.953Z,2.53
2023-03-29T19:16:06.362Z,2.63
2023-03-29T19:26:12.390Z,3.42
2023-03-29T19:31:15.359Z,3.42
2023-03-29T19:36:18.345Z,4.28
2023-03-29T19:41:21.429Z,4.70
2023-03-29T19:46:24.431Z,5.10
2023-03-29T19:51:28.084Z,4.47
2023-03-29T20:01:34.097Z,3.90
2023-03-29T20:06:37.112Z,3.53
2023-03-29T20:11:58.371Z,3.80
2023-03-29T20:17:01.194Z,3.75
2023-03-29T20:22:04.841Z,3.92
2023-03-29T20:27:07.785Z,4.78
2023-03-29T20:32:10.956Z,4.20
2023-03-29T20:37:14.895Z,5.07
2023-03-29T20:42:18.299Z,4.65
2023-03-29T20:47:21.374Z,4.20
2023-03-29T20:52:25.145Z,4.53
2023-03-29T21:02:33.310Z,3.45
2023-03-29T21:07:36.805Z,3.05
2023-03-29T21:12:40.361Z,3.10
2023-03-29T21:17:43.206Z,3.50
2023-03-29T21:22:46.311Z,2.92
2023-03-29T21:27:49.467Z,2.65
2023-03-29T21:32:52.534Z,3.53
2023-03-29T21:37:55.632Z,2.72
2023-03-29T21:42:58.688Z,2.72
2023-03-29T21:48:01.775Z,2.38
2023-03-29T21:53:05.108Z,3.10
2023-03-29T21:58:08.297Z,3.25
2023-03-29T22:03:11.280Z,3.05
2023-03-29T22:08:14.150Z,3.17
2023-03-29T22:13:16.956Z,2.85
2023-03-29T22:18:21.040Z,2.70
2023-03-29T22:23:25.053Z,2.88
2023-03-29T22:28:27.872Z,3.10
2023-03-29T22:33:32.891Z,3.08
2023-03-29T22:38:35.853Z,3.30
2023-03-29T22:43:39.118Z,2.90
2023-03-29T22:48:42.169Z,3.50
2023-03-29T22:53:47.290Z,3.03
2023-03-29T22:58:50.206Z,3.50
2023-03-29T23:03:53.085Z,3.03
2023-03-29T23:08:56.189Z,3.72
2023-03-29T23:13:59.376Z,3.53
2023-03-29T23:19:02.903Z,3.40
2023-03-29T23:24:06.929Z,4.03
2023-03-29T23:29:09.825Z,3.45
2023-03-29T23:34:13.695Z,3.67
2023-03-29T23:39:16.600Z,3.60
2023-03-29T23:44:19.410Z,3.42
2023-03-29T23:49:23.002Z,3.50
2023-03-29T23:54:26.404Z,4.20
2023-03-29T23:59:31.370Z,3.58
